Kunming Wujiaba International Airport
ZPPP : now visible

Airfield :











YOU CAN JOIN US ON...

 
LOGIN :

Register | Disclaimer

   EN    FR    IT 

 









Legend :    VFR   Marginal VFR   IFR   Intensive IFR   Very Intensive IFR
Visi :
Ceiling :
>= 8 km
>= 3000ft
5 to 8 km
1000 to 3000 ft
1500m to 5 km
500 to 1000 ft
800 to 1500m
200 to 500 ft
< 800m
< 200 ft
Symbols :   Thunderstorms  Fog  Heavy snow  Heavy precipitations  Wind > 20 kt







- Airport Elevation : 6217 ft
- IATA code : KMG


ZPPP - Kunming Wujiaba International

CURRENT METAR :
  • 251500Z 00000MPS 9999 SCT023 OVC040 18/17 Q1019 NOSIG

EXPIRED METARs :
  • 251400Z 00000MPS 9999 SCT023 OVC040 18/17 Q1019 NOSIG
  • 251300Z 00000MPS 9999 -SHRA SCT003 FEW020TCU SCT020 OVC033 18/17 Q1018 NOSIG

TAF TAF ZPPP
Valid from the 25 at 12:00 until the 26 at 12:00 UTC


250711Z 2512/2612 22004MPS 9999 SCT023 BKN040 TX25/2608Z TN17/2523Z
TEMPO 2512/2514 -TSRA FEW023CB SCT023 BKN040
ZPKM FIR / Asia



MET'MAP, your aeronautical weather chart ! - Copyright ORBIFLY December 2007 - Disclaimer

ORBIFLY MET'MAP TEAM :

Programming & Development : Alexandra Zaïnal
Concept & Development : Baudouin d'Aumeries
Co-Development & Prog : Marc-Olivier Méhu
Technical & hardware support : Manuel Goepfert

Contact : metmap@orbifly.com




SOURCES & CREDITS :

   NOAA       Earth
Advisory